sensor_id;sensor_type;location;lat;lon;timestamp;pressure;altitude;pressure_sealevel;temperature
8362;BMP180;4218;48.326;14.304;2022-07-17T00:01:28;99221.00;;;14.50
8362;BMP180;4218;48.326;14.304;2022-07-17T00:03:53;99214.00;;;14.60
8362;BMP180;4218;48.326;14.304;2022-07-17T00:06:18;99215.00;;;14.70
8362;BMP180;4218;48.326;14.304;2022-07-17T00:08:44;99218.00;;;14.70
8362;BMP180;4218;48.326;14.304;2022-07-17T00:11:09;99222.00;;;14.70
8362;BMP180;4218;48.326;14.304;2022-07-17T00:13:35;99212.00;;;14.60
8362;BMP180;4218;48.326;14.304;2022-07-17T00:16:00;99212.00;;;14.60
8362;BMP180;4218;48.326;14.304;2022-07-17T00:18:26;99228.00;;;14.60
8362;BMP180;4218;48.326;14.304;2022-07-17T00:20:51;99224.00;;;14.70
8362;BMP180;4218;48.326;14.304;2022-07-17T00:23:17;99224.00;;;14.60
8362;BMP180;4218;48.326;14.304;2022-07-17T00:25:42;99223.00;;;14.70
8362;BMP180;4218;48.326;14.304;2022-07-17T00:28:08;99228.00;;;14.80
8362;BMP180;4218;48.326;14.304;2022-07-17T00:30:33;99229.00;;;14.90
8362;BMP180;4218;48.326;14.304;2022-07-17T00:32:59;99217.00;;;14.80
8362;BMP180;4218;48.326;14.304;2022-07-17T00:35:24;99228.00;;;14.70
8362;BMP180;4218;48.326;14.304;2022-07-17T00:37:50;99221.00;;;14.90
8362;BMP180;4218;48.326;14.304;2022-07-17T00:40:21;99221.00;;;14.90
8362;BMP180;4218;48.326;14.304;2022-07-17T00:42:47;99234.00;;;14.80
8362;BMP180;4218;48.326;14.304;2022-07-17T00:45:13;99232.00;;;14.70
8362;BMP180;4218;48.326;14.304;2022-07-17T00:47:54;99231.00;;;14.70
8362;BMP180;4218;48.326;14.304;2022-07-17T00:50:35;99237.00;;;14.60
8362;BMP180;4218;48.326;14.304;2022-07-17T00:53:02;99232.00;;;14.50
8362;BMP180;4218;48.326;14.304;2022-07-17T00:55:28;99233.00;;;14.30
8362;BMP180;4218;48.326;14.304;2022-07-17T00:57:55;99229.00;;;14.30
8362;BMP180;4218;48.326;14.304;2022-07-17T01:00:21;99231.00;;;14.30
8362;BMP180;4218;48.326;14.304;2022-07-17T01:02:49;99236.00;;;14.20
8362;BMP180;4218;48.326;14.304;2022-07-17T01:05:17;99244.00;;;14.30
8362;BMP180;4218;48.326;14.304;2022-07-17T01:07:42;99247.00;;;14.30
8362;BMP180;4218;48.326;14.304;2022-07-17T01:10:09;99246.00;;;14.30
8362;BMP180;4218;48.326;14.304;2022-07-17T01:12:34;99245.00;;;14.20
8362;BMP180;4218;48.326;14.304;2022-07-17T01:15:00;99238.00;;;14.20
8362;BMP180;4218;48.326;14.304;2022-07-17T01:17:26;99244.00;;;14.30
8362;BMP180;4218;48.326;14.304;2022-07-17T01:19:52;99253.00;;;14.10
8362;BMP180;4218;48.326;14.304;2022-07-17T01:22:18;99250.00;;;14.00
8362;BMP180;4218;48.326;14.304;2022-07-17T01:24:43;99247.00;;;13.90
8362;BMP180;4218;48.326;14.304;2022-07-17T01:27:09;99253.00;;;13.80
8362;BMP180;4218;48.326;14.304;2022-07-17T01:29:39;99246.00;;;13.80
8362;BMP180;4218;48.326;14.304;2022-07-17T01:32:05;99257.00;;;13.70
8362;BMP180;4218;48.326;14.304;2022-07-17T01:34:31;99253.00;;;13.80
8362;BMP180;4218;48.326;14.304;2022-07-17T01:36:56;99257.00;;;13.70
8362;BMP180;4218;48.326;14.304;2022-07-17T01:39:22;99255.00;;;13.60
8362;BMP180;4218;48.326;14.304;2022-07-17T01:42:07;99251.00;;;13.70
8362;BMP180;4218;48.326;14.304;2022-07-17T01:44:33;99254.00;;;13.80
8362;BMP180;4218;48.326;14.304;2022-07-17T01:46:58;99247.00;;;13.80
8362;BMP180;4218;48.326;14.304;2022-07-17T01:49:24;99250.00;;;13.90
8362;BMP180;4218;48.326;14.304;2022-07-17T01:51:49;99248.00;;;13.70
8362;BMP180;4218;48.326;14.304;2022-07-17T01:54:15;99247.00;;;13.70
8362;BMP180;4218;48.326;14.304;2022-07-17T01:56:40;99252.00;;;13.60
8362;BMP180;4218;48.326;14.304;2022-07-17T01:59:06;99246.00;;;13.50
8362;BMP180;4218;48.326;14.304;2022-07-17T02:01:31;99250.00;;;13.20
8362;BMP180;4218;48.326;14.304;2022-07-17T02:03:57;99243.00;;;13.10
8362;BMP180;4218;48.326;14.304;2022-07-17T02:06:22;99239.00;;;13.10
8362;BMP180;4218;48.326;14.304;2022-07-17T02:08:47;99249.00;;;13.00
8362;BMP180;4218;48.326;14.304;2022-07-17T02:11:18;99244.00;;;13.00
8362;BMP180;4218;48.326;14.304;2022-07-17T02:13:44;99241.00;;;13.10
8362;BMP180;4218;48.326;14.304;2022-07-17T02:16:09;99242.00;;;13.00
8362;BMP180;4218;48.326;14.304;2022-07-17T02:18:35;99252.00;;;13.00
8362;BMP180;4218;48.326;14.304;2022-07-17T02:21:00;99245.00;;;13.00
8362;BMP180;4218;48.326;14.304;2022-07-17T02:23:26;99252.00;;;13.00
8362;BMP180;4218;48.326;14.304;2022-07-17T02:25:51;99252.00;;;13.00
8362;BMP180;4218;48.326;14.304;2022-07-17T02:28:17;99249.00;;;13.10
8362;BMP180;4218;48.326;14.304;2022-07-17T02:30:42;99260.00;;;13.30
8362;BMP180;4218;48.326;14.304;2022-07-17T02:33:07;99244.00;;;13.50
8362;BMP180;4218;48.326;14.304;2022-07-17T02:35:33;99251.00;;;13.50
8362;BMP180;4218;48.326;14.304;2022-07-17T02:37:59;99261.00;;;13.30
8362;BMP180;4218;48.326;14.304;2022-07-17T02:40:25;99260.00;;;13.00
8362;BMP180;4218;48.326;14.304;2022-07-17T02:42:50;99250.00;;;12.90
8362;BMP180;4218;48.326;14.304;2022-07-17T02:45:16;99257.00;;;12.80
8362;BMP180;4218;48.326;14.304;2022-07-17T02:47:41;99254.00;;;12.80
8362;BMP180;4218;48.326;14.304;2022-07-17T02:50:08;99251.00;;;12.80
8362;BMP180;4218;48.326;14.304;2022-07-17T02:52:34;99258.00;;;12.80
8362;BMP180;4218;48.326;14.304;2022-07-17T02:55:00;99251.00;;;12.80
8362;BMP180;4218;48.326;14.304;2022-07-17T02:57:25;99244.00;;;12.80
8362;BMP180;4218;48.326;14.304;2022-07-17T02:59:50;99249.00;;;12.80
8362;BMP180;4218;48.326;14.304;2022-07-17T03:02:16;99250.00;;;12.80
8362;BMP180;4218;48.326;14.304;2022-07-17T03:04:41;99245.00;;;12.90
8362;BMP180;4218;48.326;14.304;2022-07-17T03:07:07;99247.00;;;13.10
8362;BMP180;4218;48.326;14.304;2022-07-17T03:09:32;99240.00;;;13.10
8362;BMP180;4218;48.326;14.304;2022-07-17T03:11:58;99247.00;;;13.00
8362;BMP180;4218;48.326;14.304;2022-07-17T03:14:24;99245.00;;;13.20
8362;BMP180;4218;48.326;14.304;2022-07-17T03:16:49;99245.00;;;13.30
8362;BMP180;4218;48.326;14.304;2022-07-17T03:19:14;99243.00;;;13.20
8362;BMP180;4218;48.326;14.304;2022-07-17T03:21:40;99232.00;;;13.10
8362;BMP180;4218;48.326;14.304;2022-07-17T03:24:05;99242.00;;;13.30
8362;BMP180;4218;48.326;14.304;2022-07-17T03:26:31;99252.00;;;13.30
8362;BMP180;4218;48.326;14.304;2022-07-17T03:28:56;99244.00;;;13.20
8362;BMP180;4218;48.326;14.304;2022-07-17T03:31:21;99246.00;;;13.20
8362;BMP180;4218;48.326;14.304;2022-07-17T03:33:47;99246.00;;;13.30
8362;BMP180;4218;48.326;14.304;2022-07-17T03:36:12;99252.00;;;13.10
8362;BMP180;4218;48.326;14.304;2022-07-17T03:38:37;99252.00;;;13.20
8362;BMP180;4218;48.326;14.304;2022-07-17T03:41:03;99251.00;;;13.00
8362;BMP180;4218;48.326;14.304;2022-07-17T03:43:28;99263.00;;;12.90
8362;BMP180;4218;48.326;14.304;2022-07-17T03:45:54;99254.00;;;12.90
8362;BMP180;4218;48.326;14.304;2022-07-17T03:48:19;99252.00;;;12.90
8362;BMP180;4218;48.326;14.304;2022-07-17T03:50:45;99255.00;;;12.90
8362;BMP180;4218;48.326;14.304;2022-07-17T03:53:10;99255.00;;;12.90
8362;BMP180;4218;48.326;14.304;2022-07-17T03:55:35;99254.00;;;12.80
8362;BMP180;4218;48.326;14.304;2022-07-17T03:58:01;99255.00;;;12.80
8362;BMP180;4218;48.326;14.304;2022-07-17T04:00:27;99253.00;;;12.70
8362;BMP180;4218;48.326;14.304;2022-07-17T04:02:52;99256.00;;;12.80
8362;BMP180;4218;48.326;14.304;2022-07-17T04:05:18;99255.00;;;12.90
8362;BMP180;4218;48.326;14.304;2022-07-17T04:07:43;99267.00;;;13.10
8362;BMP180;4218;48.326;14.304;2022-07-17T04:10:11;99265.00;;;13.20
8362;BMP180;4218;48.326;14.304;2022-07-17T04:12:37;99265.00;;;13.20
8362;BMP180;4218;48.326;14.304;2022-07-17T04:15:04;99265.00;;;13.40
8362;BMP180;4218;48.326;14.304;2022-07-17T04:17:29;99264.00;;;13.50
8362;BMP180;4218;48.326;14.304;2022-07-17T04:19:55;99260.00;;;13.40
8362;BMP180;4218;48.326;14.304;2022-07-17T04:22:20;99274.00;;;13.30
8362;BMP180;4218;48.326;14.304;2022-07-17T04:24:46;99262.00;;;13.60
8362;BMP180;4218;48.326;14.304;2022-07-17T04:27:12;99267.00;;;13.70
8362;BMP180;4218;48.326;14.304;2022-07-17T04:29:37;99264.00;;;13.60
8362;BMP180;4218;48.326;14.304;2022-07-17T04:32:04;99254.00;;;13.60
8362;BMP180;4218;48.326;14.304;2022-07-17T04:34:30;99272.00;;;13.60
8362;BMP180;4218;48.326;14.304;2022-07-17T04:36:55;99269.00;;;13.60
8362;BMP180;4218;48.326;14.304;2022-07-17T04:39:21;99267.00;;;13.50
8362;BMP180;4218;48.326;14.304;2022-07-17T04:41:48;99273.00;;;13.60
8362;BMP180;4218;48.326;14.304;2022-07-17T04:44:13;99278.00;;;13.70
8362;BMP180;4218;48.326;14.304;2022-07-17T04:46:39;99275.00;;;13.80
8362;BMP180;4218;48.326;14.304;2022-07-17T04:49:04;99270.00;;;13.90
8362;BMP180;4218;48.326;14.304;2022-07-17T04:51:29;99272.00;;;14.00
8362;BMP180;4218;48.326;14.304;2022-07-17T04:53:55;99278.00;;;14.20
8362;BMP180;4218;48.326;14.304;2022-07-17T04:56:21;99262.00;;;14.20
8362;BMP180;4218;48.326;14.304;2022-07-17T04:58:47;99274.00;;;14.30
8362;BMP180;4218;48.326;14.304;2022-07-17T05:01:12;99283.00;;;14.50
8362;BMP180;4218;48.326;14.304;2022-07-17T05:03:37;99264.00;;;14.50
8362;BMP180;4218;48.326;14.304;2022-07-17T05:06:03;99269.00;;;14.60
8362;BMP180;4218;48.326;14.304;2022-07-17T05:08:29;99282.00;;;14.70
8362;BMP180;4218;48.326;14.304;2022-07-17T05:10:55;99282.00;;;14.70
8362;BMP180;4218;48.326;14.304;2022-07-17T05:13:20;99280.00;;;14.80
8362;BMP180;4218;48.326;14.304;2022-07-17T05:15:45;99281.00;;;15.00
8362;BMP180;4218;48.326;14.304;2022-07-17T05:18:11;99290.00;;;15.10
8362;BMP180;4218;48.326;14.304;2022-07-17T05:20:36;99288.00;;;15.30
8362;BMP180;4218;48.326;14.304;2022-07-17T05:23:02;99291.00;;;15.50
8362;BMP180;4218;48.326;14.304;2022-07-17T05:25:27;99293.00;;;15.90
8362;BMP180;4218;48.326;14.304;2022-07-17T05:27:53;99292.00;;;16.10
8362;BMP180;4218;48.326;14.304;2022-07-17T05:30:18;99306.00;;;16.30
8362;BMP180;4218;48.326;14.304;2022-07-17T05:32:43;99290.00;;;16.30
8362;BMP180;4218;48.326;14.304;2022-07-17T05:35:09;99304.00;;;16.30
8362;BMP180;4218;48.326;14.304;2022-07-17T05:37:34;99307.00;;;16.30
8362;BMP180;4218;48.326;14.304;2022-07-17T05:39:59;99300.00;;;16.20
8362;BMP180;4218;48.326;14.304;2022-07-17T05:42:25;99292.00;;;16.30
8362;BMP180;4218;48.326;14.304;2022-07-17T05:44:50;99309.00;;;16.40
8362;BMP180;4218;48.326;14.304;2022-07-17T05:47:16;99298.00;;;16.40
8362;BMP180;4218;48.326;14.304;2022-07-17T05:49:41;99297.00;;;16.50
8362;BMP180;4218;48.326;14.304;2022-07-17T05:52:06;99294.00;;;16.60
8362;BMP180;4218;48.326;14.304;2022-07-17T05:54:32;99308.00;;;16.70
8362;BMP180;4218;48.326;14.304;2022-07-17T05:57:00;99309.00;;;16.80
8362;BMP180;4218;48.326;14.304;2022-07-17T05:59:26;99312.00;;;17.10
8362;BMP180;4218;48.326;14.304;2022-07-17T06:01:51;99316.00;;;17.10
8362;BMP180;4218;48.326;14.304;2022-07-17T06:04:17;99306.00;;;17.20
8362;BMP180;4218;48.326;14.304;2022-07-17T06:06:42;99304.00;;;17.30
8362;BMP180;4218;48.326;14.304;2022-07-17T06:09:08;99308.00;;;17.20
8362;BMP180;4218;48.326;14.304;2022-07-17T06:11:33;99316.00;;;17.30
8362;BMP180;4218;48.326;14.304;2022-07-17T06:13:59;99316.00;;;17.40
8362;BMP180;4218;48.326;14.304;2022-07-17T06:16:24;99316.00;;;17.60
8362;BMP180;4218;48.326;14.304;2022-07-17T06:18:50;99312.00;;;17.70
8362;BMP180;4218;48.326;14.304;2022-07-17T06:21:15;99320.00;;;18.00
8362;BMP180;4218;48.326;14.304;2022-07-17T06:23:41;99307.00;;;18.10
8362;BMP180;4218;48.326;14.304;2022-07-17T06:26:06;99310.00;;;18.00
8362;BMP180;4218;48.326;14.304;2022-07-17T06:28:31;99309.00;;;18.00
8362;BMP180;4218;48.326;14.304;2022-07-17T06:30:57;99308.00;;;18.10
8362;BMP180;4218;48.326;14.304;2022-07-17T06:33:22;99312.00;;;18.10
8362;BMP180;4218;48.326;14.304;2022-07-17T06:35:48;99300.00;;;18.30
8362;BMP180;4218;48.326;14.304;2022-07-17T06:38:13;99314.00;;;18.30
8362;BMP180;4218;48.326;14.304;2022-07-17T06:40:38;99309.00;;;18.70
8362;BMP180;4218;48.326;14.304;2022-07-17T06:43:05;99295.00;;;18.60
8362;BMP180;4218;48.326;14.304;2022-07-17T06:45:31;99306.00;;;18.80
8362;BMP180;4218;48.326;14.304;2022-07-17T06:47:56;99299.00;;;19.10
8362;BMP180;4218;48.326;14.304;2022-07-17T06:50:21;99308.00;;;19.10
8362;BMP180;4218;48.326;14.304;2022-07-17T06:52:47;99309.00;;;18.80
8362;BMP180;4218;48.326;14.304;2022-07-17T06:55:13;99319.00;;;19.00
8362;BMP180;4218;48.326;14.304;2022-07-17T06:57:38;99320.00;;;19.10
8362;BMP180;4218;48.326;14.304;2022-07-17T07:00:04;99324.00;;;19.40
8362;BMP180;4218;48.326;14.304;2022-07-17T07:02:30;99323.00;;;19.40
8362;BMP180;4218;48.326;14.304;2022-07-17T07:04:55;99324.00;;;19.70
8362;BMP180;4218;48.326;14.304;2022-07-17T07:07:20;99318.00;;;19.60
8362;BMP180;4218;48.326;14.304;2022-07-17T07:09:46;99320.00;;;19.60
8362;BMP180;4218;48.326;14.304;2022-07-17T07:12:12;99333.00;;;19.60
8362;BMP180;4218;48.326;14.304;2022-07-17T07:14:38;99324.00;;;19.60
8362;BMP180;4218;48.326;14.304;2022-07-17T07:17:03;99321.00;;;19.40
8362;BMP180;4218;48.326;14.304;2022-07-17T07:19:30;99331.00;;;19.40
8362;BMP180;4218;48.326;14.304;2022-07-17T07:21:55;99317.00;;;19.70
8362;BMP180;4218;48.326;14.304;2022-07-17T07:24:22;99323.00;;;19.80
8362;BMP180;4218;48.326;14.304;2022-07-17T07:26:47;99318.00;;;20.10
8362;BMP180;4218;48.326;14.304;2022-07-17T07:29:13;99320.00;;;20.00
8362;BMP180;4218;48.326;14.304;2022-07-17T07:31:38;99329.00;;;20.20
8362;BMP180;4218;48.326;14.304;2022-07-17T07:34:03;99326.00;;;20.20
8362;BMP180;4218;48.326;14.304;2022-07-17T07:36:29;99333.00;;;20.40
8362;BMP180;4218;48.326;14.304;2022-07-17T07:38:54;99334.00;;;20.40
8362;BMP180;4218;48.326;14.304;2022-07-17T07:41:19;99330.00;;;20.40
8362;BMP180;4218;48.326;14.304;2022-07-17T07:43:45;99333.00;;;20.70
8362;BMP180;4218;48.326;14.304;2022-07-17T07:46:10;99327.00;;;20.90
8362;BMP180;4218;48.326;14.304;2022-07-17T07:48:35;99338.00;;;21.20
8362;BMP180;4218;48.326;14.304;2022-07-17T07:51:01;99331.00;;;21.30
8362;BMP180;4218;48.326;14.304;2022-07-17T07:53:26;99339.00;;;21.40
8362;BMP180;4218;48.326;14.304;2022-07-17T07:55:52;99336.00;;;21.20
8362;BMP180;4218;48.326;14.304;2022-07-17T07:58:18;99333.00;;;21.10
8362;BMP180;4218;48.326;14.304;2022-07-17T08:00:44;99338.00;;;21.20
8362;BMP180;4218;48.326;14.304;2022-07-17T08:03:12;99339.00;;;21.20
8362;BMP180;4218;48.326;14.304;2022-07-17T08:05:37;99329.00;;;21.30
8362;BMP180;4218;48.326;14.304;2022-07-17T08:08:03;99328.00;;;21.40
8362;BMP180;4218;48.326;14.304;2022-07-17T08:10:29;99345.00;;;21.50
8362;BMP180;4218;48.326;14.304;2022-07-17T08:12:54;99347.00;;;21.50
8362;BMP180;4218;48.326;14.304;2022-07-17T08:15:20;99338.00;;;21.60
8362;BMP180;4218;48.326;14.304;2022-07-17T08:17:47;99340.00;;;21.70
8362;BMP180;4218;48.326;14.304;2022-07-17T08:20:15;99350.00;;;21.50
8362;BMP180;4218;48.326;14.304;2022-07-17T08:22:44;99349.00;;;21.60
8362;BMP180;4218;48.326;14.304;2022-07-17T08:25:10;99344.00;;;21.60
8362;BMP180;4218;48.326;14.304;2022-07-17T08:27:37;99347.00;;;21.70
8362;BMP180;4218;48.326;14.304;2022-07-17T08:30:04;99347.00;;;21.50
8362;BMP180;4218;48.326;14.304;2022-07-17T08:32:29;99348.00;;;21.80
8362;BMP180;4218;48.326;14.304;2022-07-17T08:34:55;99348.00;;;22.00
8362;BMP180;4218;48.326;14.304;2022-07-17T08:37:20;99349.00;;;21.90
8362;BMP180;4218;48.326;14.304;2022-07-17T08:39:45;99345.00;;;21.90
8362;BMP180;4218;48.326;14.304;2022-07-17T08:42:11;99347.00;;;21.80
8362;BMP180;4218;48.326;14.304;2022-07-17T08:44:41;99353.00;;;21.80
8362;BMP180;4218;48.326;14.304;2022-07-17T08:47:07;99349.00;;;21.80
8362;BMP180;4218;48.326;14.304;2022-07-17T08:49:35;99349.00;;;22.10
8362;BMP180;4218;48.326;14.304;2022-07-17T08:52:03;99360.00;;;22.10
8362;BMP180;4218;48.326;14.304;2022-07-17T08:54:29;99355.00;;;22.00
8362;BMP180;4218;48.326;14.304;2022-07-17T08:56:54;99351.00;;;22.00
8362;BMP180;4218;48.326;14.304;2022-07-17T08:59:20;99340.00;;;22.00
8362;BMP180;4218;48.326;14.304;2022-07-17T09:01:45;99345.00;;;22.10
8362;BMP180;4218;48.326;14.304;2022-07-17T09:04:10;99345.00;;;22.10
8362;BMP180;4218;48.326;14.304;2022-07-17T09:06:36;99345.00;;;22.20
8362;BMP180;4218;48.326;14.304;2022-07-17T09:09:13;99342.00;;;22.10
8362;BMP180;4218;48.326;14.304;2022-07-17T09:11:45;99338.00;;;22.10
8362;BMP180;4218;48.326;14.304;2022-07-17T09:14:11;99335.00;;;22.00
8362;BMP180;4218;48.326;14.304;2022-07-17T09:16:50;99343.00;;;22.40
8362;BMP180;4218;48.326;14.304;2022-07-17T09:19:29;99341.00;;;22.60
8362;BMP180;4218;48.326;14.304;2022-07-17T09:24:49;99332.00;;;22.50
8362;BMP180;4218;48.326;14.304;2022-07-17T09:30:08;99347.00;;;22.60
8362;BMP180;4218;48.326;14.304;2022-07-17T09:32:41;99333.00;;;22.80
8362;BMP180;4218;48.326;14.304;2022-07-17T09:35:09;99330.00;;;22.70
8362;BMP180;4218;48.326;14.304;2022-07-17T09:37:35;99346.00;;;22.90
8362;BMP180;4218;48.326;14.304;2022-07-17T09:40:01;99329.00;;;22.90
8362;BMP180;4218;48.326;14.304;2022-07-17T09:42:29;99329.00;;;22.90
8362;BMP180;4218;48.326;14.304;2022-07-17T09:45:03;99327.00;;;22.90
8362;BMP180;4218;48.326;14.304;2022-07-17T09:47:31;99332.00;;;23.00
8362;BMP180;4218;48.326;14.304;2022-07-17T09:49:58;99330.00;;;23.00
8362;BMP180;4218;48.326;14.304;2022-07-17T09:52:26;99329.00;;;23.10
8362;BMP180;4218;48.326;14.304;2022-07-17T09:54:53;99327.00;;;23.00
8362;BMP180;4218;48.326;14.304;2022-07-17T09:57:25;99329.00;;;22.80
8362;BMP180;4218;48.326;14.304;2022-07-17T09:59:53;99323.00;;;22.80
8362;BMP180;4218;48.326;14.304;2022-07-17T10:02:20;99326.00;;;23.30
8362;BMP180;4218;48.326;14.304;2022-07-17T10:04:46;99326.00;;;23.40
8362;BMP180;4218;48.326;14.304;2022-07-17T10:07:12;99318.00;;;23.30
8362;BMP180;4218;48.326;14.304;2022-07-17T10:09:38;99320.00;;;23.10
8362;BMP180;4218;48.326;14.304;2022-07-17T10:12:05;99313.00;;;23.30
8362;BMP180;4218;48.326;14.304;2022-07-17T10:14:31;99314.00;;;23.10
8362;BMP180;4218;48.326;14.304;2022-07-17T10:17:06;99320.00;;;23.20
8362;BMP180;4218;48.326;14.304;2022-07-17T10:19:32;99320.00;;;23.00
8362;BMP180;4218;48.326;14.304;2022-07-17T10:21:59;99316.00;;;23.50
8362;BMP180;4218;48.326;14.304;2022-07-17T10:24:27;99319.00;;;23.30
8362;BMP180;4218;48.326;14.304;2022-07-17T10:26:53;99317.00;;;23.30
8362;BMP180;4218;48.326;14.304;2022-07-17T10:29:36;99310.00;;;23.50
8362;BMP180;4218;48.326;14.304;2022-07-17T10:32:22;99320.00;;;23.60
8362;BMP180;4218;48.326;14.304;2022-07-17T10:35:08;99321.00;;;23.50
8362;BMP180;4218;48.326;14.304;2022-07-17T10:40:11;99308.00;;;23.50
8362;BMP180;4218;48.326;14.304;2022-07-17T10:47:50;99300.00;;;23.90
8362;BMP180;4218;48.326;14.304;2022-07-17T10:50:23;99304.00;;;24.40
8362;BMP180;4218;48.326;14.304;2022-07-17T10:53:09;99285.00;;;24.50
8362;BMP180;4218;48.326;14.304;2022-07-17T10:55:42;99290.00;;;24.60
8362;BMP180;4218;48.326;14.304;2022-07-17T11:00:39;99286.00;;;24.80
8362;BMP180;4218;48.326;14.304;2022-07-17T11:03:09;99284.00;;;24.80
8362;BMP180;4218;48.326;14.304;2022-07-17T11:05:35;99285.00;;;24.90
8362;BMP180;4218;48.326;14.304;2022-07-17T11:08:00;99291.00;;;25.10
8362;BMP180;4218;48.326;14.304;2022-07-17T11:10:28;99292.00;;;25.10
8362;BMP180;4218;48.326;14.304;2022-07-17T11:12:54;99293.00;;;25.20
8362;BMP180;4218;48.326;14.304;2022-07-17T11:15:20;99291.00;;;25.10
8362;BMP180;4218;48.326;14.304;2022-07-17T11:17:47;99290.00;;;25.10
8362;BMP180;4218;48.326;14.304;2022-07-17T11:20:13;99280.00;;;24.80
8362;BMP180;4218;48.326;14.304;2022-07-17T11:22:40;99289.00;;;25.20
8362;BMP180;4218;48.326;14.304;2022-07-17T11:25:06;99283.00;;;25.20
8362;BMP180;4218;48.326;14.304;2022-07-17T11:27:32;99295.00;;;25.40
8362;BMP180;4218;48.326;14.304;2022-07-17T11:29:59;99283.00;;;25.60
8362;BMP180;4218;48.326;14.304;2022-07-17T11:32:36;99269.00;;;25.70
8362;BMP180;4218;48.326;14.304;2022-07-17T11:35:14;99281.00;;;25.70
8362;BMP180;4218;48.326;14.304;2022-07-17T11:37:39;99281.00;;;25.90
8362;BMP180;4218;48.326;14.304;2022-07-17T11:40:05;99272.00;;;25.90
8362;BMP180;4218;48.326;14.304;2022-07-17T11:42:30;99275.00;;;26.00
8362;BMP180;4218;48.326;14.304;2022-07-17T11:44:56;99269.00;;;26.20
8362;BMP180;4218;48.326;14.304;2022-07-17T11:47:24;99270.00;;;26.20
8362;BMP180;4218;48.326;14.304;2022-07-17T11:49:55;99261.00;;;25.90
8362;BMP180;4218;48.326;14.304;2022-07-17T11:52:28;99270.00;;;25.70
8362;BMP180;4218;48.326;14.304;2022-07-17T11:54:55;99274.00;;;26.00
8362;BMP180;4218;48.326;14.304;2022-07-17T11:57:23;99263.00;;;25.70
8362;BMP180;4218;48.326;14.304;2022-07-17T11:59:49;99265.00;;;25.80
8362;BMP180;4218;48.326;14.304;2022-07-17T12:02:21;99260.00;;;25.80
8362;BMP180;4218;48.326;14.304;2022-07-17T12:04:58;99253.00;;;25.70
8362;BMP180;4218;48.326;14.304;2022-07-17T12:07:38;99249.00;;;25.80
8362;BMP180;4218;48.326;14.304;2022-07-17T12:10:25;99248.00;;;25.90
8362;BMP180;4218;48.326;14.304;2022-07-17T12:12:56;99247.00;;;26.00
8362;BMP180;4218;48.326;14.304;2022-07-17T12:15:40;99257.00;;;26.10
8362;BMP180;4218;48.326;14.304;2022-07-17T12:18:19;99248.00;;;26.00
8362;BMP180;4218;48.326;14.304;2022-07-17T12:20:50;99245.00;;;26.10
8362;BMP180;4218;48.326;14.304;2022-07-17T12:23:39;99249.00;;;26.00
8362;BMP180;4218;48.326;14.304;2022-07-17T12:26:06;99246.00;;;26.10
8362;BMP180;4218;48.326;14.304;2022-07-17T12:28:32;99251.00;;;25.90
8362;BMP180;4218;48.326;14.304;2022-07-17T12:30:58;99245.00;;;25.90
8362;BMP180;4218;48.326;14.304;2022-07-17T12:33:23;99250.00;;;25.80
8362;BMP180;4218;48.326;14.304;2022-07-17T12:35:49;99250.00;;;25.80
8362;BMP180;4218;48.326;14.304;2022-07-17T12:38:14;99250.00;;;26.10
8362;BMP180;4218;48.326;14.304;2022-07-17T12:40:40;99257.00;;;26.00
8362;BMP180;4218;48.326;14.304;2022-07-17T12:43:06;99250.00;;;26.00
8362;BMP180;4218;48.326;14.304;2022-07-17T12:45:31;99242.00;;;25.90
8362;BMP180;4218;48.326;14.304;2022-07-17T12:47:56;99236.00;;;25.70
8362;BMP180;4218;48.326;14.304;2022-07-17T12:50:22;99235.00;;;26.00
8362;BMP180;4218;48.326;14.304;2022-07-17T12:52:48;99240.00;;;26.00
8362;BMP180;4218;48.326;14.304;2022-07-17T12:55:13;99236.00;;;26.00
8362;BMP180;4218;48.326;14.304;2022-07-17T12:57:39;99240.00;;;26.10
8362;BMP180;4218;48.326;14.304;2022-07-17T13:00:04;99233.00;;;26.00
8362;BMP180;4218;48.326;14.304;2022-07-17T13:02:30;99226.00;;;25.70
8362;BMP180;4218;48.326;14.304;2022-07-17T13:04:55;99222.00;;;25.70
8362;BMP180;4218;48.326;14.304;2022-07-17T13:07:21;99233.00;;;25.60
8362;BMP180;4218;48.326;14.304;2022-07-17T13:09:46;99223.00;;;25.80
8362;BMP180;4218;48.326;14.304;2022-07-17T13:12:12;99220.00;;;25.90
8362;BMP180;4218;48.326;14.304;2022-07-17T13:14:37;99206.00;;;26.00
8362;BMP180;4218;48.326;14.304;2022-07-17T13:17:02;99208.00;;;26.20
8362;BMP180;4218;48.326;14.304;2022-07-17T13:19:28;99210.00;;;26.10
8362;BMP180;4218;48.326;14.304;2022-07-17T13:21:54;99213.00;;;26.00
8362;BMP180;4218;48.326;14.304;2022-07-17T13:24:19;99204.00;;;26.00
8362;BMP180;4218;48.326;14.304;2022-07-17T13:26:45;99204.00;;;26.10
8362;BMP180;4218;48.326;14.304;2022-07-17T13:29:10;99210.00;;;26.10
8362;BMP180;4218;48.326;14.304;2022-07-17T13:31:35;99209.00;;;26.10
8362;BMP180;4218;48.326;14.304;2022-07-17T13:34:01;99212.00;;;25.70
8362;BMP180;4218;48.326;14.304;2022-07-17T13:36:26;99212.00;;;25.60
8362;BMP180;4218;48.326;14.304;2022-07-17T13:38:51;99221.00;;;25.60
8362;BMP180;4218;48.326;14.304;2022-07-17T13:41:17;99213.00;;;26.00
8362;BMP180;4218;48.326;14.304;2022-07-17T13:43:42;99217.00;;;26.20
8362;BMP180;4218;48.326;14.304;2022-07-17T13:46:07;99208.00;;;26.00
8362;BMP180;4218;48.326;14.304;2022-07-17T13:48:33;99207.00;;;25.90
8362;BMP180;4218;48.326;14.304;2022-07-17T13:50:58;99208.00;;;26.20
8362;BMP180;4218;48.326;14.304;2022-07-17T13:53:24;99210.00;;;26.40
8362;BMP180;4218;48.326;14.304;2022-07-17T13:55:49;99215.00;;;26.20
8362;BMP180;4218;48.326;14.304;2022-07-17T13:58:14;99205.00;;;25.60
8362;BMP180;4218;48.326;14.304;2022-07-17T14:00:40;99198.00;;;25.60
8362;BMP180;4218;48.326;14.304;2022-07-17T14:03:05;99198.00;;;25.70
8362;BMP180;4218;48.326;14.304;2022-07-17T14:05:31;99198.00;;;26.10
8362;BMP180;4218;48.326;14.304;2022-07-17T14:07:56;99208.00;;;26.10
8362;BMP180;4218;48.326;14.304;2022-07-17T14:10:22;99190.00;;;26.20
8362;BMP180;4218;48.326;14.304;2022-07-17T14:12:47;99193.00;;;25.80
8362;BMP180;4218;48.326;14.304;2022-07-17T14:15:13;99193.00;;;25.60
8362;BMP180;4218;48.326;14.304;2022-07-17T14:17:38;99201.00;;;26.00
8362;BMP180;4218;48.326;14.304;2022-07-17T14:20:04;99192.00;;;25.80
8362;BMP180;4218;48.326;14.304;2022-07-17T14:22:30;99196.00;;;26.00
8362;BMP180;4218;48.326;14.304;2022-07-17T14:24:55;99198.00;;;26.10
8362;BMP180;4218;48.326;14.304;2022-07-17T14:27:21;99195.00;;;25.70
8362;BMP180;4218;48.326;14.304;2022-07-17T14:29:47;99197.00;;;25.90
8362;BMP180;4218;48.326;14.304;2022-07-17T14:32:12;99189.00;;;25.70
8362;BMP180;4218;48.326;14.304;2022-07-17T14:34:38;99187.00;;;26.10